Time;durP1;ratioP1;P1;durP2;ratioP2;P2;SDS_P1;SDS_P2;PMS_P1;PMS_P2;Temp;Humidity;BMP_temperature;BMP_pressure;BME280_temperature;BME280_humidity;BME280_pressure;Samples;Min_cycle;Max_cycle;Signal;HPM_P1;HPM_P2
2023/05/26 00:02:08;;;;;;;3.27;2.93;;;21.20;52.90;22.00;101889.00;;;;5010310;28;20650;-53
2023/05/26 00:04:34;;;;;;;3.90;3.47;;;21.20;52.90;22.00;101894.00;;;;5010135;28;20178;-53
2023/05/26 00:06:59;;;;;;;4.53;3.40;;;21.10;52.90;21.90;101901.00;;;;5009801;28;20176;-55
2023/05/26 00:09:25;;;;;;;4.00;3.60;;;21.10;52.90;21.90;101896.00;;;;5010397;28;20203;-55
2023/05/26 00:11:51;;;;;;;3.80;3.20;;;21.10;52.90;21.90;101898.00;;;;5013924;28;20546;-54
2023/05/26 00:14:17;;;;;;;3.83;3.43;;;21.20;53.00;21.90;101893.00;;;;5010825;28;20230;-54
2023/05/26 00:16:46;;;;;;;3.97;3.50;;;21.10;52.90;21.80;101892.00;;;;5010164;28;20195;-54
2023/05/26 00:19:12;;;;;;;3.73;3.40;;;21.10;53.00;21.80;101897.00;;;;5010068;28;20251;-55
2023/05/26 00:21:39;;;;;;;3.73;3.30;;;21.10;53.10;21.80;101906.00;;;;5010035;28;20712;-55
2023/05/26 00:24:05;;;;;;;4.07;3.70;;;21.10;53.10;21.80;101908.00;;;;5010073;28;20633;-52
2023/05/26 00:26:31;;;;;;;4.20;3.70;;;21.00;53.00;21.70;101904.00;;;;5012669;28;20244;-52
2023/05/26 00:28:56;;;;;;;5.07;3.50;;;21.00;53.00;21.70;101891.00;;;;5010096;28;20200;-54
2023/05/26 00:31:22;;;;;;;3.50;3.20;;;21.00;53.20;21.70;101894.00;;;;5009766;28;20175;-52
2023/05/26 00:33:48;;;;;;;3.57;3.00;;;21.00;53.20;21.70;101901.00;;;;5009486;28;20173;-52
2023/05/26 00:36:14;;;;;;;3.50;3.20;;;21.00;53.20;21.60;101908.00;;;;5009508;28;20230;-54
2023/05/26 00:38:40;;;;;;;3.50;3.20;;;21.00;53.20;21.60;101911.00;;;;5009114;28;20205;-54
2023/05/26 00:41:07;;;;;;;4.03;3.50;;;21.00;53.20;21.60;101908.00;;;;5009699;28;20288;-53
2023/05/26 00:43:32;;;;;;;3.57;3.27;;;21.00;53.20;21.60;101902.00;;;;4991688;28;20214;-52
2023/05/26 00:45:58;;;;;;;5.37;3.30;;;20.90;53.10;21.60;101898.00;;;;5009269;28;20187;-53
2023/05/26 00:48:24;;;;;;;3.80;3.47;;;20.90;53.20;21.50;101909.00;;;;5009097;28;20198;-54
2023/05/26 00:50:49;;;;;;;4.60;3.50;;;20.90;53.20;21.50;101901.00;;;;5008829;28;20198;-57
2023/05/26 00:53:16;;;;;;;3.70;3.10;;;20.90;53.20;21.50;101904.00;;;;5009241;28;20628;-52
2023/05/26 00:55:42;;;;;;;5.17;3.40;;;20.90;53.20;21.50;101901.00;;;;5008952;28;20669;-52
2023/05/26 00:58:08;;;;;;;5.47;3.67;;;20.90;53.20;21.40;101899.00;;;;4991315;28;20218;-53
2023/05/26 01:00:33;;;;;;;5.07;3.50;;;20.80;53.20;21.40;101900.00;;;;5008948;28;20358;-54
2023/05/26 01:02:59;;;;;;;5.13;3.50;;;20.90;53.20;21.40;101901.00;;;;5008870;28;20246;-52
2023/05/26 01:05:25;;;;;;;5.83;3.60;;;20.80;53.20;21.40;101892.00;;;;5009074;28;20186;-53
2023/05/26 01:07:51;;;;;;;4.47;3.57;;;20.80;53.20;21.40;101897.00;;;;5009063;28;20667;-52
2023/05/26 01:10:17;;;;;;;6.17;3.47;;;20.80;53.20;21.30;101895.00;;;;5009154;28;20183;-52
2023/05/26 01:12:55;;;;;;;5.17;3.40;;;20.70;53.30;21.30;101900.00;;;;5007971;28;20198;-54
2023/05/26 01:15:33;;;;;;;4.53;3.40;;;20.70;53.30;21.30;101886.00;;;;4992031;28;20279;-53
2023/05/26 01:18:13;;;;;;;4.73;3.60;;;20.70;53.30;21.30;101898.00;;;;5007400;28;20265;-52
2023/05/26 01:21:12;;;;;;;4.90;3.33;;;20.70;53.30;21.20;101900.00;;;;5007921;28;20320;-54
2023/05/26 01:24:02;;;;;;;5.50;3.53;;;20.70;53.20;21.20;101901.00;;;;5002774;28;20183;-51
2023/05/26 01:26:59;;;;;;;4.63;3.63;;;20.60;53.30;21.10;101903.00;;;;5008791;28;20261;-53
2023/05/26 01:29:25;;;;;;;5.90;3.60;;;20.60;53.20;21.10;101903.00;;;;5008620;28;20211;-52
2023/05/26 01:31:51;;;;;;;4.20;3.30;;;20.60;53.30;21.10;101896.00;;;;5008577;28;20618;-56
2023/05/26 01:34:17;;;;;;;5.37;3.60;;;20.60;53.30;21.10;101841.00;;;;5008378;28;20184;-54
2023/05/26 01:36:42;;;;;;;6.00;3.67;;;20.60;53.40;21.10;101894.00;;;;5008605;28;20295;-51
2023/05/26 01:39:08;;;;;;;5.20;3.53;;;20.50;53.30;21.10;101907.00;;;;5008722;28;20292;-53
2023/05/26 01:41:46;;;;;;;6.03;3.70;;;20.50;53.30;21.10;101905.00;;;;5011699;28;20638;-52
2023/05/26 01:44:37;;;;;;;5.23;3.60;;;20.50;53.30;21.00;101900.00;;;;4994511;28;20187;-53
2023/05/26 01:47:03;;;;;;;6.37;3.70;;;20.40;53.20;21.00;101902.00;;;;5007185;28;20202;-55
2023/05/26 01:49:29;;;;;;;4.80;3.40;;;20.40;53.30;21.00;101904.00;;;;4990149;28;20195;-53
2023/05/26 01:52:01;;;;;;;5.33;3.73;;;20.40;53.30;21.00;101903.00;;;;5006979;28;20209;-55
2023/05/26 01:54:28;;;;;;;5.40;3.43;;;20.40;53.30;20.90;101902.00;;;;5007004;28;20179;-53
2023/05/26 01:56:54;;;;;;;5.63;3.90;;;20.30;53.20;20.90;101901.00;;;;4990739;28;20183;-53
2023/05/26 01:59:23;;;;;;;6.03;3.60;;;20.30;53.30;20.90;101904.00;;;;4990768;28;20210;-51
2023/05/26 02:01:49;;;;;;;5.57;3.70;;;20.30;53.30;20.90;101903.00;;;;4974458;28;20237;-53
2023/05/26 02:04:15;;;;;;;6.40;3.90;;;20.30;53.30;20.90;101900.00;;;;5008304;28;20206;-53
2023/05/26 02:06:41;;;;;;;4.87;3.50;;;20.20;53.30;20.90;101910.00;;;;5008365;28;20183;-51
2023/05/26 02:09:07;;;;;;;5.30;3.40;;;20.20;53.30;20.90;101906.00;;;;5008381;28;20634;-52
2023/05/26 02:11:33;;;;;;;5.77;3.83;;;20.20;53.30;20.80;101905.00;;;;5009490;28;20187;-52
2023/05/26 02:13:59;;;;;;;5.93;3.80;;;20.20;53.30;20.70;101908.00;;;;5009704;28;20189;-53
2023/05/26 02:16:26;;;;;;;6.17;3.40;;;20.20;53.30;20.80;101896.00;;;;5009021;28;20197;-53
2023/05/26 02:18:52;;;;;;;4.80;3.60;;;20.20;53.40;20.80;101897.00;;;;5008824;28;20576;-54
2023/05/26 02:21:18;;;;;;;5.90;3.43;;;20.20;53.40;20.80;101899.00;;;;5008748;28;20203;-52
2023/05/26 02:23:44;;;;;;;5.37;3.17;;;20.10;53.30;20.80;101889.00;;;;5008118;28;20646;-53
2023/05/26 02:26:10;;;;;;;7.13;3.90;;;20.10;53.40;20.80;101904.00;;;;5008208;28;20189;-54
2023/05/26 02:28:37;;;;;;;6.27;3.30;;;20.10;53.50;20.70;101904.00;;;;5009760;28;20315;-52
2023/05/26 02:31:03;;;;;;;5.80;3.47;;;20.10;53.50;20.70;101899.00;;;;5007991;28;20177;-53
2023/05/26 02:33:29;;;;;;;4.80;3.10;;;20.10;53.50;20.70;101897.00;;;;5007954;28;20267;-53
2023/05/26 02:35:55;;;;;;;6.03;3.57;;;20.10;53.50;20.70;101895.00;;;;5007867;28;20373;-52
2023/05/26 02:38:22;;;;;;;5.67;3.73;;;20.10;53.50;20.70;101894.00;;;;5007839;28;20553;-50
2023/05/26 02:40:49;;;;;;;6.23;3.50;;;20.00;53.50;20.70;101894.00;;;;5008047;28;20216;-52
2023/05/26 02:43:15;;;;;;;6.60;3.63;;;20.00;53.50;20.60;101883.00;;;;5008030;28;20202;-50
2023/05/26 02:45:41;;;;;;;4.90;3.47;;;20.00;53.80;20.60;101885.00;;;;5007651;28;20600;-51
2023/05/26 02:48:07;;;;;;;6.47;3.40;;;20.00;53.50;20.60;101897.00;;;;5007675;28;20215;-52
2023/05/26 02:50:33;;;;;;;5.70;3.40;;;20.00;53.40;20.60;101888.00;;;;5007594;28;20192;-52
2023/05/26 02:52:59;;;;;;;5.70;3.50;;;20.00;53.50;20.60;101878.00;;;;5008037;28;20190;-54
2023/05/26 02:55:24;;;;;;;5.50;3.60;;;20.00;53.40;20.60;101888.00;;;;5008087;28;20176;-52
2023/05/26 02:57:51;;;;;;;5.13;3.63;;;20.00;53.40;20.50;101880.00;;;;5007514;28;20342;-54
2023/05/26 03:00:17;;;;;;;6.70;3.93;;;19.90;53.40;20.50;101882.00;;;;5008284;28;20191;-53
2023/05/26 03:02:43;;;;;;;5.80;3.50;;;19.90;53.40;20.50;101872.00;;;;5011215;28;20281;-52
2023/05/26 03:05:09;;;;;;;6.10;3.87;;;19.80;53.30;20.50;101877.00;;;;5010952;28;20185;-52
2023/05/26 03:07:35;;;;;;;6.43;3.97;;;19.90;53.30;20.50;101878.00;;;;5011266;28;20200;-52
2023/05/26 03:10:01;;;;;;;5.80;3.80;;;19.80;53.30;20.50;101875.00;;;;5011206;28;20179;-53
2023/05/26 03:12:26;;;;;;;6.87;3.83;;;19.90;53.30;20.50;101886.00;;;;5011310;28;20215;-53
2023/05/26 03:14:54;;;;;;;6.47;3.67;;;19.80;53.30;20.50;101880.00;;;;5011042;28;20189;-52
2023/05/26 03:17:20;;;;;;;6.90;3.87;;;19.80;53.30;20.40;101880.00;;;;5009789;28;20315;-52
2023/05/26 03:19:45;;;;;;;5.90;3.77;;;19.80;53.30;20.40;101873.00;;;;5011049;28;20275;-52
2023/05/26 03:22:11;;;;;;;7.20;3.90;;;19.80;53.30;20.40;101875.00;;;;4993575;28;20726;-51
2023/05/26 03:24:37;;;;;;;7.80;4.00;;;19.70;53.30;20.40;101873.00;;;;5011127;28;20180;-51
2023/05/26 03:27:03;;;;;;;7.53;3.60;;;19.80;53.70;20.40;101820.00;;;;4993246;28;20227;-50
2023/05/26 03:29:30;;;;;;;6.53;3.70;;;19.80;53.40;20.40;101883.00;;;;4999194;28;20303;-51
2023/05/26 03:31:56;;;;;;;7.40;3.93;;;19.80;53.30;20.40;101870.00;;;;5010019;28;20246;-52
2023/05/26 03:34:24;;;;;;;7.00;3.90;;;19.80;53.30;20.40;101880.00;;;;5008577;28;20551;-52
2023/05/26 03:36:49;;;;;;;7.30;3.20;;;19.80;53.20;20.40;101884.00;;;;5008501;28;20263;-53
2023/05/26 03:39:19;;;;;;;6.27;3.47;;;19.80;53.90;20.30;101886.00;;;;5008967;28;20698;-53
2023/05/26 03:41:45;;;;;;;8.13;3.60;;;19.80;53.30;20.30;101885.00;;;;5009559;28;20328;-53
2023/05/26 03:44:10;;;;;;;6.93;3.60;;;19.70;53.20;20.30;101890.00;;;;5002231;28;20184;-52
2023/05/26 03:46:36;;;;;;;5.33;3.30;;;19.80;53.30;20.30;101884.00;;;;5011196;28;20208;-52
2023/05/26 03:49:02;;;;;;;7.00;3.60;;;19.70;53.20;20.30;101898.00;;;;5010717;28;20219;-52
2023/05/26 03:51:27;;;;;;;6.70;3.67;;;19.70;53.20;20.30;101885.00;;;;5010244;28;20573;-51
2023/05/26 03:53:53;;;;;;;7.07;3.70;;;19.70;53.20;20.30;101895.00;;;;5010893;28;20184;-52
2023/05/26 03:56:19;;;;;;;6.77;4.00;;;19.70;53.20;20.20;101893.00;;;;5011147;28;20179;-53
2023/05/26 03:58:45;;;;;;;6.30;3.80;;;19.70;53.20;20.20;101886.00;;;;5010784;28;20207;-52
2023/05/26 04:01:10;;;;;;;6.33;3.50;;;19.60;53.10;20.20;101897.00;;;;5010816;28;20223;-52
2023/05/26 04:03:36;;;;;;;6.67;3.87;;;19.60;53.00;20.20;101894.00;;;;5011910;28;20714;-52
2023/05/26 04:06:02;;;;;;;5.53;3.60;;;19.60;53.10;20.20;101886.00;;;;5014652;28;20175;-52
2023/05/26 04:08:28;;;;;;;6.23;3.97;;;19.60;53.00;20.10;101896.00;;;;5011023;28;20223;-52
2023/05/26 04:10:54;;;;;;;6.37;3.63;;;19.60;53.00;20.10;101902.00;;;;5011030;28;20202;-54
2023/05/26 04:13:20;;;;;;;6.40;3.97;;;19.60;53.00;20.10;101896.00;;;;4978919;28;20192;-53
2023/05/26 04:15:46;;;;;;;5.80;3.70;;;19.60;53.00;20.10;101910.00;;;;5011080;28;20721;-54
2023/05/26 04:18:11;;;;;;;7.53;3.70;;;19.60;53.00;20.10;101908.00;;;;5010499;28;20215;-56
2023/05/26 04:20:37;;;;;;;7.23;3.67;;;19.60;53.10;20.10;101895.00;;;;5010594;28;20184;-54
2023/05/26 04:23:03;;;;;;;7.07;3.70;;;19.60;53.10;20.10;101906.00;;;;5010821;28;20180;-51
2023/05/26 04:25:30;;;;;;;6.47;3.30;;;19.50;53.00;20.10;101901.00;;;;5010995;28;20179;-52
2023/05/26 04:27:58;;;;;;;5.63;3.37;;;19.60;53.00;20.10;101902.00;;;;5008151;28;20204;-49
2023/05/26 04:30:24;;;;;;;7.13;3.80;;;19.60;53.10;20.10;101905.00;;;;5009299;28;20182;-56
2023/05/26 04:32:50;;;;;;;6.40;3.77;;;19.50;53.10;20.00;101903.00;;;;5010970;28;20203;-56
2023/05/26 04:35:17;;;;;;;7.47;3.70;;;19.50;53.20;20.00;101907.00;;;;5018126;28;20192;-55
2023/05/26 04:37:43;;;;;;;6.13;3.80;;;19.50;53.20;20.00;101917.00;;;;5011686;28;20290;-52
2023/05/26 04:40:09;;;;;;;7.23;3.83;;;19.50;53.30;20.00;101924.00;;;;5010347;28;20267;-52
2023/05/26 04:42:36;;;;;;;8.00;4.20;;;19.50;53.30;20.00;101920.00;;;;5009660;28;20293;-52
2023/05/26 04:45:05;;;;;;;6.30;3.97;;;19.50;53.30;20.00;101917.00;;;;5010005;28;20176;-53
2023/05/26 04:47:32;;;;;;;5.50;3.70;;;19.50;53.40;20.00;101920.00;;;;5010448;28;20639;-53
2023/05/26 04:49:59;;;;;;;5.37;3.90;;;19.50;53.40;20.00;101927.00;;;;5008747;28;20219;-53
2023/05/26 04:52:26;;;;;;;5.93;3.70;;;19.50;53.50;20.00;101921.00;;;;5009120;28;20187;-53
2023/05/26 04:54:52;;;;;;;6.20;4.00;;;19.50;53.50;20.00;101932.00;;;;5009611;28;20615;-53
2023/05/26 04:57:18;;;;;;;5.83;3.50;;;19.40;53.40;20.00;101923.00;;;;5009816;28;20253;-50
2023/05/26 04:59:45;;;;;;;5.53;3.60;;;19.40;53.50;20.00;101934.00;;;;5010392;28;20187;-51
2023/05/26 05:02:11;;;;;;;7.73;3.50;;;19.40;53.50;19.90;101933.00;;;;5009965;28;20206;-54
2023/05/26 05:04:37;;;;;;;6.37;3.40;;;19.40;53.60;19.90;101925.00;;;;5009975;28;20266;-53
2023/05/26 05:07:03;;;;;;;5.67;3.20;;;19.40;53.50;19.90;101927.00;;;;5004263;28;20179;-50
2023/05/26 05:09:28;;;;;;;4.63;3.13;;;19.40;53.60;19.90;101924.00;;;;5005539;28;20274;-53
2023/05/26 05:11:54;;;;;;;6.87;3.93;;;19.40;53.60;19.90;101935.00;;;;5008999;28;20242;-52
2023/05/26 05:14:20;;;;;;;6.63;3.50;;;19.40;53.60;19.90;101925.00;;;;5009558;28;20191;-51
2023/05/26 05:16:46;;;;;;;5.73;3.40;;;19.40;53.60;19.90;101932.00;;;;5009622;28;20195;-52
2023/05/26 05:19:13;;;;;;;5.93;3.53;;;19.40;53.70;19.90;101931.00;;;;5009703;28;20229;-51
2023/05/26 05:21:39;;;;;;;4.83;3.20;;;19.40;53.70;19.90;101938.00;;;;5009178;28;20211;-53
2023/05/26 05:24:05;;;;;;;4.47;3.20;;;19.30;53.70;19.90;101939.00;;;;5008571;28;20193;-53
2023/05/26 05:26:30;;;;;;;4.30;3.20;;;19.30;53.70;19.90;101941.00;;;;5009467;28;20243;-54
2023/05/26 05:28:56;;;;;;;4.83;3.20;;;19.30;53.70;19.90;101945.00;;;;5009504;28;20591;-52
2023/05/26 05:31:22;;;;;;;4.77;3.30;;;19.30;53.70;19.90;101945.00;;;;5009349;28;20184;-51
2023/05/26 05:33:48;;;;;;;4.20;3.00;;;19.40;53.90;19.80;101952.00;;;;5009482;28;20680;-52
2023/05/26 05:36:14;;;;;;;4.20;3.30;;;19.30;53.90;19.90;101951.00;;;;5009533;28;20191;-52
2023/05/26 05:38:39;;;;;;;4.20;3.10;;;19.30;53.90;19.90;101946.00;;;;5009747;28;20210;-51
2023/05/26 05:41:05;;;;;;;3.67;2.90;;;19.30;54.00;19.90;101950.00;;;;5008809;28;20227;-53
2023/05/26 05:43:32;;;;;;;4.70;3.20;;;19.30;54.00;19.80;101963.00;;;;5009036;28;20206;-54
2023/05/26 05:45:58;;;;;;;4.30;2.87;;;19.30;54.00;19.80;101969.00;;;;5009417;28;20258;-53
2023/05/26 05:48:24;;;;;;;3.80;3.17;;;19.30;54.00;19.80;101968.00;;;;5009312;28;20196;-51
2023/05/26 05:50:49;;;;;;;5.20;2.80;;;19.30;54.10;19.80;101972.00;;;;5008826;28;20218;-51
2023/05/26 05:53:15;;;;;;;4.00;3.03;;;19.30;54.10;19.80;101976.00;;;;5010731;28;20621;-50
2023/05/26 05:55:41;;;;;;;4.23;3.30;;;19.30;54.10;19.80;101986.00;;;;5016718;28;20191;-50
2023/05/26 05:58:06;;;;;;;3.90;3.00;;;19.20;54.60;19.80;101981.00;;;;5010113;28;20708;-50
2023/05/26 06:00:32;;;;;;;4.73;2.80;;;19.30;54.20;19.80;101987.00;;;;5010560;28;20180;-50
2023/05/26 06:02:58;;;;;;;4.57;3.00;;;19.20;54.10;19.80;101993.00;;;;5011603;28;20207;-50
2023/05/26 06:05:24;;;;;;;4.93;3.30;;;19.20;54.20;19.80;101994.00;;;;5010811;28;20190;-52
2023/05/26 06:07:49;;;;;;;4.67;3.23;;;19.20;54.20;19.80;102004.00;;;;5010407;28;20838;-50
2023/05/26 06:10:15;;;;;;;5.23;3.00;;;19.20;54.30;19.80;101987.00;;;;5002933;28;20183;-50
2023/05/26 06:12:41;;;;;;;4.47;3.37;;;19.20;54.30;19.80;101995.00;;;;5016224;28;20222;-50
2023/05/26 06:15:07;;;;;;;3.80;3.03;;;19.20;54.40;19.80;102009.00;;;;5012627;28;20190;-50
2023/05/26 06:17:33;;;;;;;4.13;3.03;;;19.20;54.40;19.80;102000.00;;;;5010910;28;20207;-50
2023/05/26 06:19:59;;;;;;;4.40;3.20;;;19.20;54.50;19.80;101999.00;;;;5010580;28;20179;-52
2023/05/26 06:22:24;;;;;;;3.60;3.00;;;19.10;54.40;19.70;101998.00;;;;5010358;28;20697;-51
2023/05/26 06:24:50;;;;;;;3.57;2.87;;;19.10;54.40;19.80;102007.00;;;;5010630;28;20175;-49
2023/05/26 06:27:16;;;;;;;3.43;2.87;;;19.20;54.60;19.80;102003.00;;;;5012507;28;20176;-52
2023/05/26 06:29:42;;;;;;;4.63;2.80;;;19.10;54.60;19.70;102017.00;;;;5013021;28;20183;-50
2023/05/26 06:32:07;;;;;;;3.57;3.00;;;19.20;54.70;19.70;102003.00;;;;5010709;28;20180;-51
2023/05/26 06:34:33;;;;;;;4.33;3.20;;;19.20;54.70;19.70;102003.00;;;;5010821;28;20542;-52
2023/05/26 06:36:59;;;;;;;3.50;2.90;;;19.10;54.70;19.70;102009.00;;;;5013912;28;20176;-51
2023/05/26 06:39:25;;;;;;;3.00;2.70;;;19.10;54.80;19.70;102007.00;;;;5014812;28;20585;-51
2023/05/26 06:41:50;;;;;;;3.70;2.70;;;19.10;54.80;19.70;102004.00;;;;5013843;28;20203;-52
2023/05/26 06:44:17;;;;;;;3.60;2.90;;;19.10;54.90;19.70;102008.00;;;;5013660;28;20186;-51
2023/05/26 06:46:44;;;;;;;3.53;3.10;;;19.10;54.90;19.70;102004.00;;;;5013959;28;20179;-52
2023/05/26 06:49:09;;;;;;;3.50;2.93;;;19.10;54.80;19.70;102006.00;;;;5013695;28;20261;-51
2023/05/26 06:51:35;;;;;;;3.60;3.00;;;19.10;55.00;19.70;102008.00;;;;5013048;28;21065;-51
2023/05/26 06:54:01;;;;;;;3.87;2.60;;;19.10;55.00;19.70;102016.00;;;;5012493;28;20188;-51
2023/05/26 06:56:27;;;;;;;3.70;2.80;;;19.10;55.10;19.70;102012.00;;;;5007063;28;20183;-52
2023/05/26 06:58:53;;;;;;;3.63;2.80;;;19.10;55.10;19.70;102011.00;;;;5013537;28;20693;-51
2023/05/26 07:01:18;;;;;;;3.80;2.83;;;19.10;55.20;19.70;102012.00;;;;5012829;28;20216;-51
2023/05/26 07:03:44;;;;;;;6.43;3.53;;;19.00;55.10;19.70;102013.00;;;;5016203;28;20183;-51
2023/05/26 07:06:11;;;;;;;3.90;2.73;;;19.10;55.40;19.70;102011.00;;;;5008827;28;20211;-52
2023/05/26 07:08:36;;;;;;;8.73;3.63;;;19.10;55.60;19.70;102024.00;;;;5012055;28;20271;-50
2023/05/26 07:11:02;;;;;;;4.47;3.00;;;19.10;55.80;19.70;102023.00;;;;5011705;28;20836;-50
2023/05/26 07:13:28;;;;;;;4.47;3.00;;;19.10;55.70;19.70;102019.00;;;;5020191;28;20183;-51
2023/05/26 07:15:54;;;;;;;4.67;2.80;;;19.10;55.80;19.70;102034.00;;;;5014253;28;20603;-50
2023/05/26 07:18:20;;;;;;;4.40;3.00;;;19.10;55.90;19.70;102030.00;;;;5013995;28;20255;-51
2023/05/26 07:20:47;;;;;;;4.17;2.80;;;19.10;56.00;19.70;102040.00;;;;5014364;28;20194;-51
2023/05/26 07:23:13;;;;;;;3.63;2.90;;;19.10;56.00;19.70;102037.00;;;;5014089;28;20176;-50
2023/05/26 07:25:39;;;;;;;3.93;2.97;;;19.10;56.00;19.70;102041.00;;;;5013824;28;20214;-50
2023/05/26 07:28:05;;;;;;;4.90;3.00;;;19.10;56.00;19.70;102050.00;;;;5013574;28;20199;-51
2023/05/26 07:30:30;;;;;;;3.53;2.90;;;19.00;55.90;19.70;102044.00;;;;5013667;28;20180;-51
2023/05/26 07:32:56;;;;;;;4.63;2.90;;;19.00;55.90;19.70;102049.00;;;;5013422;28;20215;-50
2023/05/26 07:35:22;;;;;;;5.23;2.90;;;19.00;55.90;19.60;102043.00;;;;5012592;28;20210;-51
2023/05/26 07:37:48;;;;;;;6.57;3.30;;;19.00;55.90;19.70;102046.00;;;;5012556;28;20254;-50
2023/05/26 07:40:13;;;;;;;3.63;2.90;;;19.00;55.90;19.60;102040.00;;;;5012811;28;20553;-50
2023/05/26 07:42:39;;;;;;;5.57;3.20;;;19.00;55.90;19.60;102038.00;;;;5012962;28;20226;-50
2023/05/26 07:45:06;;;;;;;5.00;3.40;;;19.00;55.90;19.60;102030.00;;;;5012939;28;20187;-50
2023/05/26 07:47:31;;;;;;;4.87;3.50;;;19.00;55.90;19.60;102029.00;;;;5012658;28;20207;-50
2023/05/26 07:50:00;;;;;;;4.50;3.10;;;19.00;55.90;19.70;102034.00;;;;5014032;28;20199;-50
2023/05/26 07:52:26;;;;;;;5.70;3.47;;;19.00;55.90;19.60;102044.00;;;;5013755;28;20234;-51
2023/05/26 07:54:52;;;;;;;5.77;3.37;;;19.00;55.90;19.60;102029.00;;;;5013589;28;20608;-50
2023/05/26 07:57:18;;;;;;;3.93;2.97;;;19.00;55.90;19.60;102029.00;;;;5012248;28;20179;-50
2023/05/26 07:59:43;;;;;;;5.87;3.90;;;19.00;55.90;19.60;102030.00;;;;5013737;28;20191;-51
2023/05/26 08:02:10;;;;;;;4.80;3.70;;;19.00;55.90;19.60;102031.00;;;;5012753;28;20206;-50
2023/05/26 08:04:37;;;;;;;6.97;3.90;;;19.00;55.90;19.60;102034.00;;;;5013511;28;20180;-51
2023/05/26 08:07:03;;;;;;;6.73;3.50;;;18.90;55.80;19.50;102040.00;;;;5012860;28;20183;-50
2023/05/26 08:09:28;;;;;;;6.97;4.20;;;19.00;55.90;19.60;101931.00;;;;5012728;28;20203;-51
2023/05/26 08:11:54;;;;;;;6.17;3.97;;;19.00;55.90;19.60;102022.00;;;;5015939;28;20201;-50
2023/05/26 08:14:22;;;;;;;7.27;4.00;;;18.90;55.80;19.60;102039.00;;;;5011596;28;20194;-50
2023/05/26 08:16:48;;;;;;;5.90;3.83;;;19.00;55.90;19.60;102039.00;;;;5014362;28;20183;-50
2023/05/26 08:19:14;;;;;;;5.47;3.83;;;18.90;55.80;19.60;102040.00;;;;5014477;28;20199;-50
2023/05/26 08:21:39;;;;;;;6.10;4.17;;;19.00;55.90;19.60;102037.00;;;;5013085;28;20207;-50
2023/05/26 08:24:05;;;;;;;4.83;3.77;;;19.00;55.90;19.60;102039.00;;;;5012725;28;20759;-49
2023/05/26 08:26:31;;;;;;;6.70;3.63;;;19.00;56.00;19.60;102031.00;;;;5012946;28;20182;-49
2023/05/26 08:28:57;;;;;;;6.10;4.20;;;18.90;55.80;19.60;102033.00;;;;5014930;28;20191;-51
2023/05/26 08:31:22;;;;;;;7.20;4.00;;;19.00;55.90;19.60;102032.00;;;;5012832;28;20566;-51
2023/05/26 08:33:48;;;;;;;6.93;3.90;;;18.90;55.90;19.60;102027.00;;;;5012858;28;20650;-49
2023/05/26 08:36:14;;;;;;;9.20;4.27;;;19.00;56.10;19.60;102045.00;;;;5012659;28;20186;-50
2023/05/26 08:38:40;;;;;;;10.63;4.80;;;19.00;56.20;19.60;102030.00;;;;5013486;28;20200;-50
2023/05/26 08:41:05;;;;;;;10.33;4.40;;;19.00;56.40;19.60;102037.00;;;;5012916;28;20211;-50
2023/05/26 08:43:45;;;;;;;11.87;4.17;;;19.00;56.50;19.60;102043.00;;;;5012609;28;20179;-49
2023/05/26 08:46:12;;;;;;;13.23;4.70;;;18.90;57.00;19.50;102034.00;;;;5005941;28;20186;-50
2023/05/26 08:48:41;;;;;;;10.53;4.93;;;18.90;57.60;19.50;102025.00;;;;5010788;28;20204;-50
2023/05/26 08:51:10;;;;;;;14.43;4.93;;;18.90;57.70;19.50;102019.00;;;;5012667;28;20203;-50
2023/05/26 08:53:36;;;;;;;9.53;4.30;;;18.90;57.40;19.50;102020.00;;;;5006330;28;20191;-50
2023/05/26 08:56:02;;;;;;;14.03;4.67;;;18.90;57.20;19.50;102028.00;;;;5010676;28;20686;-50
2023/05/26 08:58:28;;;;;;;17.07;5.13;;;18.90;57.40;19.60;102024.00;;;;5010484;28;20278;-50
2023/05/26 09:00:54;;;;;;;12.93;4.83;;;18.90;57.30;19.60;102014.00;;;;4992980;28;20234;-50
2023/05/26 09:03:20;;;;;;;14.13;4.70;;;18.90;57.30;19.60;102019.00;;;;4992532;28;20241;-51
2023/05/26 09:05:45;;;;;;;12.50;4.80;;;18.90;57.50;19.60;102025.00;;;;5009189;28;20187;-50
2023/05/26 09:08:12;;;;;;;14.07;4.60;;;19.00;57.50;19.60;102019.00;;;;5009816;28;20271;-50
2023/05/26 09:10:38;;;;;;;13.10;4.83;;;19.00;57.60;19.70;102023.00;;;;5009203;28;20733;-50
2023/05/26 09:13:08;;;;;;;10.37;4.27;;;19.00;57.60;19.70;102013.00;;;;5010053;28;20176;-50
2023/05/26 09:15:36;;;;;;;10.57;4.67;;;19.00;57.70;19.70;102029.00;;;;5010233;28;20218;-49
2023/05/26 09:18:09;;;;;;;7.07;4.23;;;19.00;57.90;19.70;102026.00;;;;5010482;28;20199;-51
2023/05/26 09:20:39;;;;;;;8.40;4.37;;;19.00;58.00;19.70;102022.00;;;;5010409;28;20707;-50
2023/05/26 09:23:05;;;;;;;8.73;4.40;;;19.00;58.00;19.70;102024.00;;;;5009536;28;20182;-50
2023/05/26 09:25:40;;;;;;;8.33;4.00;;;19.00;57.80;19.70;102028.00;;;;5010056;28;20231;-50
2023/05/26 09:28:08;;;;;;;10.37;4.73;;;19.00;57.70;19.70;102034.00;;;;5009680;28;20203;-50
2023/05/26 09:30:44;;;;;;;9.83;4.47;;;19.00;57.60;19.70;102023.00;;;;5009693;28;20203;-50
2023/05/26 09:33:12;;;;;;;8.17;4.13;;;19.00;58.20;19.70;102047.00;;;;5009531;28;20175;-50
2023/05/26 09:35:40;;;;;;;7.30;4.13;;;19.00;57.60;19.70;102032.00;;;;5000930;28;20258;-49
2023/05/26 09:38:09;;;;;;;9.53;4.70;;;19.00;57.60;19.80;102039.00;;;;5008615;28;20199;-50
2023/05/26 09:40:46;;;;;;;8.07;4.30;;;19.00;57.60;19.80;102045.00;;;;5008352;28;20258;-50
2023/05/26 09:43:12;;;;;;;9.57;4.90;;;19.00;57.50;19.80;102039.00;;;;5007863;28;20179;-50
2023/05/26 09:45:38;;;;;;;8.73;4.53;;;19.00;57.50;19.80;102060.00;;;;5009387;28;20190;-49
2023/05/26 09:48:05;;;;;;;8.50;4.60;;;19.00;57.50;19.80;102056.00;;;;5009268;28;20677;-50
2023/05/26 09:50:35;;;;;;;10.43;4.90;;;19.00;57.40;19.80;102037.00;;;;5008627;28;20187;-50
2023/05/26 09:53:06;;;;;;;7.37;4.07;;;19.00;58.00;19.80;102030.00;;;;5007654;28;20258;-50
2023/05/26 09:55:32;;;;;;;6.70;4.87;;;19.00;57.30;19.80;102039.00;;;;5008681;28;20638;-50
2023/05/26 09:58:06;;;;;;;8.80;4.67;;;19.00;57.30;19.80;102036.00;;;;5009270;28;20215;-50
2023/05/26 10:00:39;;;;;;;10.43;5.30;;;19.00;57.30;19.80;102030.00;;;;5009329;28;20171;-50
2023/05/26 10:03:06;;;;;;;10.03;4.47;;;19.00;57.30;19.80;102029.00;;;;5007930;28;20282;-50
2023/05/26 10:05:33;;;;;;;8.00;4.50;;;19.00;57.20;19.80;102026.00;;;;5008893;28;20677;-50
2023/05/26 10:08:00;;;;;;;9.97;5.17;;;19.00;57.30;19.80;102026.00;;;;5007827;28;20736;-50
2023/05/26 10:10:26;;;;;;;10.00;4.63;;;19.10;57.90;19.80;102022.00;;;;5010648;28;20237;-51
2023/05/26 10:12:51;;;;;;;8.80;4.50;;;19.00;57.20;19.80;102025.00;;;;5015304;28;20183;-51
2023/05/26 10:15:17;;;;;;;9.07;4.37;;;19.10;57.30;19.80;102015.00;;;;5016256;28;20171;-50
2023/05/26 10:17:43;;;;;;;8.10;5.07;;;19.00;57.20;19.80;102020.00;;;;5010827;28;20245;-51
2023/05/26 10:20:09;;;;;;;6.50;4.30;;;19.10;57.30;19.80;102016.00;;;;4995739;28;20801;-51
2023/05/26 10:22:40;;;;;;;7.50;4.63;;;19.10;57.20;19.80;102017.00;;;;5011181;28;20211;-50
2023/05/26 10:25:30;;;;;;;9.40;4.67;;;19.00;57.10;19.90;102013.00;;;;5011373;28;20182;-50
2023/05/26 10:28:20;;;;;;;10.87;5.10;;;19.00;57.20;19.90;102028.00;;;;5014069;28;20685;-51
2023/05/26 10:30:46;;;;;;;8.43;4.33;;;19.10;57.40;19.90;102021.00;;;;5012481;28;20190;-50
2023/05/26 10:33:14;;;;;;;11.10;5.03;;;19.00;57.20;19.90;102016.00;;;;5011048;28;20731;-50
2023/05/26 10:35:57;;;;;;;7.80;4.33;;;19.10;57.40;19.90;102004.00;;;;5011544;28;20179;-51
2023/05/26 10:38:26;;;;;;;10.77;4.67;;;19.10;57.40;19.90;102015.00;;;;5012528;28;20204;-50
2023/05/26 10:40:52;;;;;;;8.83;4.77;;;19.10;57.40;19.90;102024.00;;;;5012092;28;20242;-50
2023/05/26 10:43:27;;;;;;;7.20;4.17;;;19.10;57.40;19.90;102009.00;;;;5012241;28;20176;-51
2023/05/26 10:46:01;;;;;;;7.90;4.23;;;19.10;57.50;19.90;102007.00;;;;5012147;28;20178;-50
2023/05/26 10:48:56;;;;;;;8.33;4.73;;;19.10;57.60;19.90;102001.00;;;;5012416;28;20245;-50